• Join FlightAware (Why Join?)
  • Login
  • US Flag 
02:56PM EDT


 

Airport Tracker/Info


-or-


 

Live Flight TrackerFlight Track Log ✈ JBU758 ✈ 21-Apr-2013 ✈ TNCA / AUA - KJFK

Flight Track Log - Related Links

Times and Time Zones

All times are in EDT time to prevent confusion due to time zone crossing. See the JBU758 flight status page for this flight to view local times or setup timezone preferences in your user account.

Time Position Orientation Groundspeed Altitude Reporting Facility
EDT Latitude Longitude Course Direction KTS MPH feet Rate Location/Type
04:46PM 12.8648 -69.9922 North  Level FlightAware Approximate
04:47PM 12.9859 -69.9845 North  Level FlightAware Approximate
04:48PM 13.1070 -69.9768 North  Level FlightAware Approximate
04:49PM 13.2282 -69.9691 North  Level FlightAware Approximate
04:50PM 13.3493 -69.9614 North  Level FlightAware Approximate
04:51PM 13.4704 -69.9536 North  Level FlightAware Approximate
04:52PM 13.5836 -69.9464 North  Level FlightAware Approximate
04:53PM 13.6967 -69.9392 North  Level FlightAware Approximate
04:54PM 13.8099 -69.9320 North  Level FlightAware Approximate
04:55PM 13.9230 -69.9247 North  Level FlightAware Approximate
04:56PM 14.0362 -69.9175 North  Level FlightAware Approximate
04:57PM 14.1493 -69.9102 North  Level FlightAware Approximate
04:58PM 14.2708 -69.9033 North  Level FlightAware Approximate
04:59PM 14.3922 -69.8963 North  Level FlightAware Approximate
05:00PM 14.5137 -69.8894 North  Level FlightAware Approximate
05:01PM 14.6351 -69.8824 North  Level FlightAware Approximate
05:02PM 14.7565 -69.8755 North  Level FlightAware Approximate
05:03PM 14.8780 -69.8685 North  Level FlightAware Approximate
05:04PM 14.9994 -69.8615 North  Level FlightAware Approximate
05:05PM 15.1209 -69.8546 North  Level FlightAware Approximate
05:06PM 15.2421 -69.8474 North  Level FlightAware Approximate
05:07PM 15.3635 -69.8398 North  Level FlightAware Approximate
05:08PM 15.4849 -69.8322 North  Level FlightAware Approximate
05:09PM 15.6063 -69.8247 North  Level FlightAware Approximate
05:10PM 15.7277 -69.8171 North  Level FlightAware Approximate
05:11PM 15.8409 -69.8100 North  Level FlightAware Approximate
05:12PM 15.9542 -69.8029 North  Level FlightAware Approximate
05:13PM 16.0674 -69.7963 North  Level FlightAware Approximate
05:14PM 16.1807 -69.7902 North  Level FlightAware Approximate
05:15PM 16.2939 -69.7840 North  Level FlightAware Approximate
05:16PM 16.4072 -69.7778 North  Level FlightAware Approximate
05:17PM 16.5204 -69.7716 North  Level FlightAware Approximate
05:18PM 16.6337 -69.7654 North  Level FlightAware Approximate
05:19PM 16.7470 -69.7592 North  Level FlightAware Approximate
05:20PM 16.8602 -69.7529 North  Level FlightAware Approximate
05:21PM 16.9735 -69.7467 North  Level FlightAware Approximate
05:22PM 17.0867 -69.7405 North  Level FlightAware Approximate
05:23PM 17.2000 -69.7342 North  Level FlightAware Approximate
05:24PM 17.3133 -69.7280 North  Level FlightAware Approximate
05:25PM 17.4265 -69.7217 North  Level FlightAware Approximate
05:26PM 17.5398 -69.7154 North  Level FlightAware Approximate
05:27PM 17.6530 -69.7092 North  Level FlightAware Approximate
05:28PM 17.7663 -69.7029 North  Level FlightAware Approximate
05:29PM 17.8796 -69.6966 North  Level FlightAware Approximate
05:30PM 17.9928 -69.6903 North  Level FlightAware Approximate
05:31PM 18.1061 -69.6840 North  Level FlightAware Approximate
05:32PM 18.2193 -69.6777 North  Level FlightAware Approximate
05:33PM 18.3326 -69.6714 North  Level FlightAware Approximate
05:34PM 18.4460 -69.6670 359° North  Level FlightAware Approximate
05:34PM 18.2181 -69.6406 359° North 457 526 36,000  Level Miami Center
05:35PM 18.5594 -69.6682 359° North  Level FlightAware Approximate
05:35PM 18.3392 -69.6542 354° North 452 520 36,000  Level Miami Center
05:36PM 18.6728 -69.6694 359° North  Level FlightAware Approximate
05:36PM 18.4603 -69.6633 356° North 436 502 36,000  Level Miami Center
05:37PM 18.7862 -69.6706 359° North  Level FlightAware Approximate
05:37PM 18.5789 -69.6642 360° North 430 495 36,000  Level Miami Center
05:38PM 18.8996 -69.6719 359° North  Level FlightAware Approximate
05:38PM 18.6956 -69.6692 358° North 425 489 36,000  Level Miami Center
05:39PM 19.0130 -69.6731 359° North  Level FlightAware Approximate
05:39PM 18.8161 -69.6697 360° North 430 495 36,000  Level Miami Center
05:40PM 18.9331 -69.6769 357° North 425 489 36,000  Level Miami Center
05:41PM 19.0536 -69.6753 North 425 489 36,000  Level Miami Center
05:42PM 19.1722 -69.6781 359° North 425 489 36,000  Level Miami Center
05:43PM 19.2889 -69.6811 359° North 425 489 36,000  Level Miami Center
05:44PM 19.4075 -69.6817 360° North 425 489 36,000  Level Miami Center
05:45PM 19.5244 -69.6867 358° North 419 482 36,000  Level Miami Center
05:46PM 19.6450 -69.6850 North 424 488 36,000  Level Miami Center
05:47PM 19.7597 -69.6900 358° North 424 488 36,000  Level Miami Center
05:48PM 19.8764 -69.6950 358° North 424 488 36,000  Level Miami Center
05:49PM 19.9992 -69.6931 North 424 488 36,000  Level Miami Center
05:50PM 20.1142 -69.7028 355° North 424 488 36,000  Level Miami Center
05:51PM 20.2311 -69.7100 357° North 419 482 36,000  Level Miami Center
05:52PM 20.3522 -69.7192 356° North 424 488 36,000  Level Miami Center
05:53PM 20.4672 -69.7264 357° North 424 488 36,000  Level Miami Center
05:54PM 20.5842 -69.7336 357° North 424 488 36,000  Level Miami Center
05:55PM 20.7033 -69.7453 355° North 429 494 36,000  Level Miami Center
05:56PM 20.8206 -69.7522 357° North 423 487 36,000  Level Miami Center
05:57PM 20.9356 -69.7619 355° North 418 481 36,000  Level Miami Center
05:58PM 21.0525 -69.7692 357° North 418 481 36,000  Level Miami Center
05:59PM 21.1694 -69.7764 357° North 418 481 36,000  Level Miami Center
06:00PM 21.2844 -69.7858 356° North 418 481 36,000  Level Miami Center
06:01PM 21.4017 -69.7931 357° North 418 481 36,000  Level Miami Center
06:02PM 21.5208 -69.8000 357° North 423 487 36,000  Level Miami Center
06:03PM 21.6358 -69.8097 356° North 423 487 36,000  Level Miami Center
06:04PM 21.7550 -69.8167 357° North 423 487 36,000  Level Miami Center
06:05PM 21.8681 -69.8264 355° North 423 487 36,000  Level Miami Center
06:06PM 21.9894 -69.8356 356° North 425 489 36,000  Level Miami Center
06:07PM 22.1086 -69.8450 356° North 425 489 36,000  Level Miami Center
06:08PM 22.2278 -69.8519 357° North 425 489 36,000  Level Miami Center
06:09PM 22.3450 -69.8614 356° North 430 495 36,000  Level Miami Center
06:10PM 22.4664 -69.8708 356° North 425 489 36,000  Level Miami Center
06:11PM 22.5836 -69.8800 356° North 425 489 36,000  Level Miami Center
06:12PM 22.7008 -69.8894 356° North 425 489 36,000 -60 Level Miami Center
06:13PM 22.8181 -69.8989 356° North 425 489 35,900  Descending Miami Center
06:14PM 22.9350 -69.9061 357° North 425 489 36,000  Climbing Miami Center
06:15PM 23.0567 -69.9178 355° North 425 489 36,000  Level Miami Center
06:16PM 23.1758 -69.9247 357° North 425 489 36,000  Level Miami Center
06:17PM 23.2928 -69.9297 358° North 425 489 36,000  Level Miami Center
06:18PM 23.4167 -69.9456 353° North 425 489 36,000  Level Miami Center
06:19PM 23.5317 -69.9508 358° North 425 489 36,000  Level Miami Center
06:20PM 23.6511 -69.9622 355° North 425 489 36,000  Level Miami Center
06:21PM 23.7683 -69.9694 357° North 425 489 36,000  Level Miami Center
06:22PM 23.8919 -69.9808 355° North 430 495 36,000  Level Miami Center
06:23PM 24.0089 -69.9858 358° North 425 489 36,000  Level Miami Center
06:24PM 24.1283 -69.9975 355° North 425 489 36,000  Level Miami Center
06:25PM 24.2453 -70.0003 359° North 425 489 36,000  Level Miami Center
06:26PM 24.3694 -70.0231 351° North 425 489 36,000  Level Miami Center
06:27PM 24.4886 -70.0278 358° North 425 489 36,000  Level Miami Center
06:28PM 24.6108 -70.0050 10° North 425 489 36,000  Level Miami Center
06:29PM 24.7319 -70.0075 359° North 425 489 36,000  Level Miami Center
06:30PM 24.8489 -70.0122 358° North 425 489 36,000  Level Miami Center
06:31PM 24.9686 -70.0286 353° North 425 489 36,000  Level Miami Center
06:32PM 25.0000 -70.0500 348° North 433 498 36,000  Level New York Oceanic (ODAPS)
06:38PM 25.8278 -70.2427 348° North 433 498 36,000  Level FlightAware Transoceanic
06:39PM 25.9460 -70.2704 348° North 433 498 36,000  Level FlightAware Transoceanic
06:40PM 26.0642 -70.2982 348° North 433 498 36,000  Level FlightAware Transoceanic
06:41PM 26.1825 -70.3261 348° North 433 498 36,000  Level FlightAware Transoceanic
06:42PM 26.3007 -70.3540 348° North 433 498 36,000  Level FlightAware Transoceanic
06:43PM 26.4189 -70.3820 348° North 433 498 36,000  Level FlightAware Transoceanic
06:44PM 26.5371 -70.4100 348° North 433 498 36,000  Level FlightAware Transoceanic
06:45PM 26.6553 -70.4381 348° North 433 498 36,000  Level FlightAware Transoceanic
06:46PM 26.7735 -70.4663 348° North 433 498 36,000  Level FlightAware Transoceanic
06:47PM 26.8917 -70.4945 348° North 433 498 36,000  Level FlightAware Transoceanic
06:48PM 27.0099 -70.5227 348° North 433 498 36,000  Level FlightAware Transoceanic
06:49PM 27.1280 -70.5510 348° North 433 498 36,000  Level FlightAware Transoceanic
06:50PM 27.2462 -70.5794 348° North 433 498 36,000  Level FlightAware Transoceanic
06:51PM 27.3644 -70.6079 348° North 433 498 36,000  Level FlightAware Transoceanic
06:52PM 27.4825 -70.6364 348° North 433 498 36,000  Level FlightAware Transoceanic
06:53PM 27.6007 -70.6649 348° North 433 498 36,000  Level FlightAware Transoceanic
06:54PM 27.7188 -70.6936 348° North 433 498 36,000  Level FlightAware Transoceanic
06:55PM 27.8370 -70.7223 348° North 433 498 36,000  Level FlightAware Transoceanic
06:56PM 27.9551 -70.7510 348° North 433 498 36,000  Level FlightAware Transoceanic
06:57PM 28.0732 -70.7798 348° North 433 498 36,000  Level FlightAware Transoceanic
06:58PM 28.1914 -70.8087 348° North 433 498 36,000  Level FlightAware Transoceanic
06:59PM 28.3095 -70.8376 348° North 433 498 36,000  Level FlightAware Transoceanic
07:00PM 28.4276 -70.8667 348° North 433 498 36,000  Level FlightAware Transoceanic
07:01PM 28.5457 -70.8957 348° North 433 498 36,000  Level FlightAware Transoceanic
07:02PM 28.6638 -70.9249 348° North 433 498 36,000  Level FlightAware Transoceanic
07:03PM 28.7819 -70.9541 348° North 433 498 36,000  Level FlightAware Transoceanic
07:04PM 28.9000 -70.9833 348° North 433 498 36,000  Level FlightAware Transoceanic
07:04PM 28.9000 -70.9833 348° North 456 525 36,000  Level New York Oceanic (ODAPS)
07:05PM 29.0272 -71.0146 348° North 433 498 36,000  Level FlightAware Transoceanic
07:06PM 29.1545 -71.0459 348° North 433 498 36,000  Level FlightAware Transoceanic
07:07PM 29.2817 -71.0773 348° North 433 498 36,000  Level FlightAware Transoceanic
07:08PM 29.4089 -71.1088 348° North 433 498 36,000  Level FlightAware Transoceanic
07:09PM 29.5361 -71.1404 348° North 433 498 36,000  Level FlightAware Transoceanic
07:10PM 29.7688 -71.1983 348° North 456 525 36,000  Level FlightAware Transoceanic
07:11PM 29.8929 -71.2294 348° North 456 525 36,000  Level FlightAware Transoceanic
07:12PM 30.0170 -71.2605 348° North 456 525 36,000  Level FlightAware Transoceanic
07:13PM 30.1411 -71.2916 348° North 456 525 36,000  Level FlightAware Transoceanic
07:14PM 30.2651 -71.3229 348° North 456 525 36,000  Level FlightAware Transoceanic
07:15PM 30.3892 -71.3542 348° North 456 525 36,000  Level FlightAware Transoceanic
07:16PM 30.5132 -71.3856 348° North 456 525 36,000  Level FlightAware Transoceanic
07:17PM 30.6373 -71.4171 348° North 456 525 36,000  Level FlightAware Transoceanic
07:18PM 30.7613 -71.4487 348° North 456 525 36,000  Level FlightAware Transoceanic
07:19PM 30.8853 -71.4803 348° North 456 525 36,000  Level FlightAware Transoceanic
07:20PM 31.0093 -71.5121 348° North 456 525 36,000  Level FlightAware Transoceanic
07:21PM 31.1334 -71.5439 348° North 456 525 36,000  Level FlightAware Transoceanic
07:22PM 31.2574 -71.5758 348° North 456 525 36,000  Level FlightAware Transoceanic
07:23PM 31.3813 -71.6078 348° North 456 525 36,000  Level FlightAware Transoceanic
07:24PM 31.5053 -71.6398 348° North 456 525 36,000  Level FlightAware Transoceanic
07:25PM 31.6293 -71.6720 348° North 456 525 36,000  Level FlightAware Transoceanic
07:26PM 31.7533 -71.7042 348° North 456 525 36,000  Level FlightAware Transoceanic
07:27PM 31.8773 -71.7366 347° North 456 525 36,000  Level FlightAware Transoceanic
07:28PM 32.0012 -71.7690 347° North 456 525 36,000  Level FlightAware Transoceanic
07:29PM 32.1252 -71.8015 347° North 456 525 36,000  Level FlightAware Transoceanic
07:30PM 32.2491 -71.8341 347° North 456 525 36,000  Level FlightAware Transoceanic
07:31PM 32.3730 -71.8668 347° North 456 525 36,000  Level FlightAware Transoceanic
07:32PM 32.4969 -71.8995 347° North 456 525 36,000  Level FlightAware Transoceanic
07:33PM 32.6209 -71.9324 347° North 456 525 36,000  Level FlightAware Transoceanic
07:34PM 32.7448 -71.9653 347° North 456 525 36,000  Level FlightAware Transoceanic
07:35PM 32.8687 -71.9984 347° North 456 525 36,000  Level FlightAware Transoceanic
07:36PM 32.9925 -72.0315 347° North 456 525 36,000  Level FlightAware Transoceanic
07:37PM 33.1164 -72.0647 347° North 456 525 36,000  Level FlightAware Transoceanic
07:38PM 33.2403 -72.0981 347° North 456 525 36,000  Level FlightAware Transoceanic
07:39PM 33.3642 -72.1315 347° North 456 525 36,000  Level FlightAware Transoceanic
07:40PM 33.4880 -72.1650 347° North 456 525 36,000  Level FlightAware Transoceanic
07:41PM 33.6119 -72.1986 347° North 456 525 36,000  Level FlightAware Transoceanic
07:42PM 33.7357 -72.2323 347° North 456 525 36,000  Level FlightAware Transoceanic
07:43PM 33.8595 -72.2661 347° North 456 525 36,000  Level FlightAware Transoceanic
07:44PM 33.9833 -72.3000 355° North 456 525 36,000  Level FlightAware Transoceanic
07:45PM 34.1167 -72.3144 355° North 456 525 36,000  Level FlightAware Transoceanic
07:46PM 34.2500 -72.3289 355° North 456 525 36,000  Level FlightAware Transoceanic
07:46PM 34.4414 -72.3056 355° North 449 517 36,000  Level New York Center
07:47PM 34.3834 -72.3434 355° North 456 525 36,000 -120 Level FlightAware Transoceanic
07:47PM 34.5686 -72.3106 358° North 451 519 35,900  Descending New York Center
07:48PM 34.5167 -72.3580 355° North 456 525 36,000  Climbing FlightAware Transoceanic
07:48PM 34.7061 -72.3133 359° North 471 542 35,900  Descending New York Center
07:49PM 34.6500 -72.3726 355° North 456 525 36,000 60 Climbing FlightAware Transoceanic
07:49PM 34.8458 -72.3161 359° North 486 559 36,000  Level New York Center
07:50PM 34.9792 -72.3239 357° North 492 566 36,000  Level New York Center
07:51PM 35.1211 -72.3292 358° North 497 572 36,000  Level New York Center
07:52PM 35.2608 -72.3294 360° North 497 572 36,000  Level New York Center
07:53PM 35.3919 -72.3422 355° North 490 564 36,000  Level New York Center
07:54PM 35.5339 -72.3453 359° North 496 571 36,000 -60 Level New York Center
07:55PM 35.6778 -72.3456 360° North 496 571 35,900  Descending New York Center
07:56PM 35.8175 -72.3589 356° North 496 571 36,000  Climbing New York Center
07:57PM 35.9531 -72.3617 359° North 496 571 36,000 -60 Level New York Center
07:58PM 36.0906 -72.3697 357° North 496 571 35,900  Descending New York Center
07:59PM 36.2344 -72.3753 358° North 501 577 36,000  Climbing New York Center
08:00PM 36.3783 -72.3783 359° North 501 577 36,000 -60 Level New York Center
08:01PM 36.5119 -72.3839 358° North 491 565 35,900 -60 Descending New York Center
08:02PM 36.6494 -72.3919 357° North 491 565 35,900  Level New York Center
08:03PM 36.7911 -72.3978 358° North 497 572 36,000  Climbing New York Center
08:04PM 36.9353 -72.3956 North 502 578 36,000  Level New York Center
08:05PM 37.0731 -72.3908 North 497 572 36,000  Level New York Center
08:06PM 37.2169 -72.3914 360° North 502 578 36,000  Level New York Center
08:07PM 37.3544 -72.3892 North 502 578 36,000  Level New York Center
08:08PM 37.4986 -72.3900 360° North 496 571 36,000  Level New York Center
08:14PM 38.2240 -72.6137 360° North 463 533 36,000  Level FlightAware ADS-B
08:14PM 38.2882 -72.6571 332° Northwest 461 531 36,000 -240 Level FlightAware ADS-B
08:15PM 38.3475 -72.6972 332° Northwest 457 526 35,800 -1,620 Descending FlightAware ADS-B
08:16PM 38.4560 -72.7707 332° Northwest 446 513 33,600 -2,220 Descending FlightAware ADS-B
08:16PM 38.5513 -72.8360 332° Northwest 446 513 31,700 -2,280 Descending FlightAware ADS-B
08:17PM 38.6311 -72.8907 332° Northwest 448 516 30,000 -2,400 Descending FlightAware ADS-B
08:18PM 38.6970 -72.9358 332° Northwest 438 504 28,500 -2,520 Descending FlightAware ADS-B
08:18PM 38.7534 -72.9744 332° Northwest 430 495 27,200 -2,400 Descending FlightAware ADS-B
08:19PM 38.8276 -73.0253 332° Northwest 420 483 25,500 -2,340 Descending FlightAware ADS-B
08:20PM 38.8877 -73.0668 332° Northwest 410 472 24,200 -2,220 Descending FlightAware ADS-B
08:20PM 38.9375 -73.1012 332° Northwest 404 465 23,100 -2,100 Descending FlightAware ADS-B
08:21PM 38.9913 -73.1386 332° Northwest 398 458 22,000 -2,100 Descending FlightAware ADS-B
08:21PM 39.0458 -73.1765 332° Northwest 394 453 20,800 -2,040 Descending FlightAware ADS-B
08:22PM 39.0940 -73.2099 332° Northwest 384 442 19,800 -1,980 Descending FlightAware ADS-B
08:22PM 39.1515 -73.2499 332° Northwest 374 430 18,600 -1,920 Descending FlightAware ADS-B
08:23PM 39.1986 -73.2827 332° Northwest 363 418 17,600 -1,620 Descending FlightAware ADS-B
08:23PM 39.2460 -73.3159 332° Northwest 365 420 16,900 -1,380 Descending FlightAware ADS-B
08:24PM 39.2918 -73.3478 332° Northwest 367 422 16,200 -1,560 Descending FlightAware ADS-B
08:24PM 39.3389 -73.3810 331° Northwest 361 415 15,300 -1,800 Descending FlightAware ADS-B
08:25PM 39.3825 -73.4115 332° Northwest 353 406 14,400 -1,800 Descending FlightAware ADS-B
08:26PM 39.4274 -73.4430 332° Northwest 344 396 13,500 -1,440 Descending FlightAware ADS-B
08:26PM 39.4717 -73.4741 332° Northwest 349 402 12,900 -1,020 Descending FlightAware ADS-B
08:27PM 39.5220 -73.5095 332° Northwest 348 400 12,400 -900 Descending FlightAware ADS-B
08:27PM 39.5667 -73.5411 331° Northwest 347 399 11,900 -960 Descending FlightAware ADS-B
08:28PM 39.6101 -73.5719 331° Northwest 342 394 11,400 -1,020 Descending FlightAware ADS-B
08:28PM 39.6664 -73.6115 332° Northwest 321 369 10,700 -960 Descending FlightAware ADS-B
08:29PM 39.7121 -73.6439 331° Northwest 304 350 10,200 -840 Descending FlightAware ADS-B
08:30PM 39.7630 -73.6800 331° Northwest 290 334 9,600 -840 Descending FlightAware
08:30PM 39.7825 -73.6939 331° Northwest 295 339 9,400 -840 Descending FlightAware ADS-B
08:31PM 39.8200 -73.7206 331° Northwest 290 334 9,000 -840 Descending FlightAware ADS-B
08:31PM 39.8431 -73.7370 331° Northwest 288 331 8,700 -840 Descending FlightAware ADS-B
08:31PM 39.8712 -73.7571 331° Northwest 285 328 8,400 -480 Descending FlightAware ADS-B
08:32PM 39.8915 -73.7716 331° Northwest 285 328 8,400  Level FlightAware ADS-B
08:32PM 39.9091 -73.7841 331° Northwest 287 330 8,400  Level FlightAware ADS-B
08:32PM 39.9272 -73.7971 331° Northwest 286 329 8,400  Level FlightAware ADS-B
08:32PM 39.9540 -73.8162 331° Northwest 286 329 8,400  Level FlightAware ADS-B
08:33PM 39.9734 -73.8301 331° Northwest 286 329 8,400  Level FlightAware ADS-B
08:33PM 39.9941 -73.8434 334° Northwest 287 330 8,400  Level FlightAware ADS-B
08:33PM 39.9988 -73.8450 345° North 287 330 8,400  Level FlightAware ADS-B
08:33PM 40.0072 -73.8462 354° North 288 331 8,400  Level FlightAware ADS-B
08:33PM 40.0112 -73.8461 North 288 331 8,400  Level FlightAware ADS-B
08:33PM 40.0168 -73.8453 North 289 333 8,400  Level FlightAware ADS-B
08:33PM 40.0221 -73.8437 13° North 288 331 8,400  Level FlightAware ADS-B
08:34PM 40.0360 -73.8385 16° North 287 330 8,400  Level FlightAware ADS-B
08:34PM 40.0612 -73.8282 17° North 287 330 8,400  Level FlightAware ADS-B
08:34PM 40.0806 -73.8201 18° North 289 333 8,400  Level FlightAware ADS-B
08:35PM 40.1096 -73.8082 17° North 287 330 8,400  Level FlightAware ADS-B
08:35PM 40.1293 -73.8002 17° North 288 331 8,400  Level FlightAware ADS-B
08:35PM 40.1404 -73.7950 20° North 287 330 8,400  Level FlightAware ADS-B
08:35PM 40.1602 -73.7828 25° Northeast 287 330 8,400  Level FlightAware ADS-B
08:35PM 40.1781 -73.7709 27° Northeast 288 331 8,400  Level FlightAware ADS-B
08:36PM 40.1958 -73.7591 27° Northeast 288 331 8,400  Level FlightAware ADS-B
08:36PM 40.2151 -73.7462 27° Northeast 289 333 8,400 -180 Level FlightAware ADS-B
08:36PM 40.2371 -73.7317 27° Northeast 288 331 8,300 -420 Descending FlightAware ADS-B
08:36PM 40.2503 -73.7230 27° Northeast 287 330 8,200 -840 Descending FlightAware ADS-B
08:37PM 40.2810 -73.7034 26° Northeast 274 315 7,800 -1,020 Descending FlightAware ADS-B
08:37PM 40.2991 -73.6919 26° Northeast 275 316 7,500 -1,020 Descending FlightAware ADS-B
08:37PM 40.3168 -73.6808 26° Northeast 276 318 7,300 -1,020 Descending FlightAware ADS-B
08:38PM 40.3353 -73.6694 25° Northeast 273 314 7,000 -1,140 Descending FlightAware ADS-B
08:38PM 40.3530 -73.6584 25° Northeast 272 313 6,700 -1,020 Descending FlightAware ADS-B
08:38PM 40.3692 -73.6455 31° Northeast 268 308 6,500 -480 Descending FlightAware ADS-B
08:39PM 40.3932 -73.6233 35° Northeast 262 302 6,400 -180 Descending FlightAware ADS-B
08:39PM 40.4092 -73.6082 36° Northeast 264 304 6,400  Level FlightAware ADS-B
08:39PM 40.4248 -73.5937 35° Northeast 264 304 6,400  Level FlightAware ADS-B
08:39PM 40.4413 -73.5784 35° Northeast 263 303 6,400  Level FlightAware ADS-B
08:40PM 40.4563 -73.5647 35° Northeast 261 300 6,400  Level FlightAware ADS-B
08:40PM 40.4714 -73.5509 35° Northeast 263 303 6,400  Level FlightAware ADS-B
08:40PM 40.4875 -73.5364 34° Northeast 262 302 6,400  Level FlightAware ADS-B
08:40PM 40.5035 -73.5220 34° Northeast 262 302 6,400 -600 Level FlightAware ADS-B
08:41PM 40.5202 -73.5071 34° Northeast 261 300 6,100 -1,200 Descending FlightAware ADS-B
08:41PM 40.5244 -73.5043 27° Northeast 261 300 6,000 -1,200 Descending FlightAware ADS-B
08:41PM 40.5314 -73.5012 19° North 263 303 5,900 -840 Descending FlightAware ADS-B
08:41PM 40.5414 -73.4993 North 264 304 5,800 -960 Descending FlightAware ADS-B
08:41PM 40.5621 -73.4975 North 265 305 5,500 -1,020 Descending FlightAware ADS-B
08:42PM 40.5850 -73.4956 North 261 300 5,200 -840 Descending FlightAware ADS-B
08:42PM 40.6063 -73.4939 North 253 291 5,000 -840 Descending FlightAware ADS-B
08:44PM 40.7450 -73.4780 North 226 260 3,300 -900 Descending FlightAware
08:44PM 40.7680 -73.4940 332° Northwest 217 250 2,900 -1,020 Descending FlightAware
08:45PM 40.7810 -73.5260 298° West 204 235 2,400 -900 Descending FlightAware
08:45PM 40.7920 -73.5600 293° West 188 216 2,000 -840 Descending FlightAware
08:46PM 40.8000 -73.5800 298° West 185 213 1,700 -840 Descending FlightAware
08:46PM 40.8010 -73.5890 278° West 185 213 1,600 -540 Descending FlightAware
08:46PM 40.7920 -73.6140 245° Southwest 184 212 1,400 -240 Descending FlightAware
08:47PM 40.7800 -73.6400 239° Southwest 185 213 1,400  Level FlightAware
08:47PM 40.7730 -73.6530 235° Southwest 186 214 1,400  Level FlightAware
08:47PM 40.7630 -73.6630 217° Southwest 184 212 1,400  Level FlightAware
08:48PM 40.7410 -73.6810 212° Southwest 154 177 1,400 -120 Level FlightAware
08:48PM 40.7250 -73.6920 208° Southwest 150 173 1,300 -600 Descending FlightAware
08:49PM 40.7090 -73.7040 210° Southwest 141 162 900 -780 Descending FlightAware
08:49PM 40.6950 -73.7160 213° Southwest 130 150 600 -660 Descending FlightAware
08:50PM 40.6800 -73.7270 209° Southwest 129 148 300 -600 Descending FlightAware
08:50PM 40.6670 -73.7370 210° Southwest 130 150 -720 Descending FlightAware
08:50PM 40.6590 -73.7440 214° Southwest 129 148  Level FlightAware
08:51PM 40.6430 -73.7560 210° Southwest 131 151  Level FlightAware